Time;durP1;ratioP1;P1;durP2;ratioP2;P2;SDS_P1;SDS_P2;PMS_P1;PMS_P2;Temp;Humidity;BMP_temperature;BMP_pressure;BME280_temperature;BME280_humidity;BME280_pressure;Samples;Min_cycle;Max_cycle;Signal;HPM_P1;HPM_P2
2021/04/01 00:01:48;;;;;;;17.27;14.87;;;6.80;99.90;;;;;;4840992;28;20225;-72
2021/04/01 00:04:11;;;;;;;15.90;13.73;;;6.90;99.90;;;;;;4854066;28;20259;-72
2021/04/01 00:06:33;;;;;;;16.03;13.70;;;6.80;99.90;;;;;;4855476;28;20209;-72
2021/04/01 00:08:55;;;;;;;14.83;13.23;;;6.80;99.90;;;;;;4857467;28;20194;-72
2021/04/01 00:11:17;;;;;;;13.97;11.30;;;6.70;99.90;;;;;;4856598;28;20209;-72
2021/04/01 00:13:40;;;;;;;15.40;13.53;;;;;;;;;;4853324;28;20213;-73
2021/04/01 00:16:02;;;;;;;20.47;15.30;;;6.70;99.90;;;;;;4838128;28;20293;-72
2021/04/01 00:18:25;;;;;;;16.17;14.37;;;;;;;;;;4854174;28;20198;-73
2021/04/01 00:20:48;;;;;;;20.80;17.33;;;6.90;99.90;;;;;;4855408;28;20255;-72
2021/04/01 00:23:11;;;;;;;20.50;17.27;;;6.50;99.90;;;;;;4857922;28;20252;-73
2021/04/01 00:25:33;;;;;;;18.07;16.17;;;6.90;99.90;;;;;;4856755;28;20248;-74
2021/04/01 00:27:55;;;;;;;17.93;16.00;;;6.60;99.90;;;;;;4857219;28;20182;-74
2021/04/01 00:30:18;;;;;;;19.13;16.90;;;6.70;99.90;;;;;;4857094;28;20186;-73
2021/04/01 00:32:40;;;;;;;17.33;15.57;;;6.30;99.90;;;;;;4856107;28;20182;-73
2021/04/01 00:35:02;;;;;;;17.87;15.20;;;6.70;99.90;;;;;;4856532;28;20190;-71
2021/04/01 00:37:25;;;;;;;18.40;15.33;;;6.60;99.90;;;;;;4856963;28;20218;-72
2021/04/01 00:39:49;;;;;;;16.83;14.17;;;6.70;99.90;;;;;;4855250;28;20256;-72
2021/04/01 00:42:11;;;;;;;17.13;15.27;;;;;;;;;;4857716;28;20605;-75
2021/04/01 00:44:34;;;;;;;17.37;15.50;;;6.50;99.90;;;;;;4855411;28;20269;-75
2021/04/01 00:46:56;;;;;;;16.63;14.80;;;6.50;99.90;;;;;;4857323;28;20194;-75
2021/04/01 00:49:19;;;;;;;16.97;15.17;;;;;;;;;;4856300;28;20200;-74
2021/04/01 00:51:41;;;;;;;17.07;15.07;;;6.50;99.90;;;;;;4856778;28;20193;-75
2021/04/01 00:54:04;;;;;;;18.13;15.57;;;6.40;99.90;;;;;;4856986;28;20186;-74
2021/04/01 00:56:26;;;;;;;17.67;15.53;;;;;;;;;;4852528;28;20241;-74
2021/04/01 00:58:48;;;;;;;15.23;13.63;;;6.30;99.90;;;;;;4833483;28;20570;-74
2021/04/01 01:01:24;;;;;;;15.77;13.27;;;6.10;99.90;;;;;;4854363;28;20236;-75
2021/04/01 01:03:46;;;;;;;17.60;15.40;;;;;;;;;;4834602;28;20344;-75
2021/04/01 01:06:08;;;;;;;14.53;13.07;;;6.10;99.90;;;;;;4828096;28;20237;-75
2021/04/01 01:08:31;;;;;;;14.07;12.60;;;;;;;;;;4850724;28;20186;-74
2021/04/01 01:10:54;;;;;;;14.40;12.97;;;6.10;99.90;;;;;;4856751;28;20647;-75
2021/04/01 01:13:16;;;;;;;14.63;13.13;;;6.10;99.90;;;;;;4857001;28;20557;-75
2021/04/01 01:15:38;;;;;;;15.27;13.43;;;;;;;;;;4855890;28;20210;-72
2021/04/01 01:18:00;;;;;;;17.20;15.30;;;;;;;;;;4855716;28;20198;-75
2021/04/01 01:20:24;;;;;;;18.80;16.20;;;6.10;99.90;;;;;;4857314;28;20178;-75
2021/04/01 01:22:49;;;;;;;18.33;16.10;;;6.10;99.90;;;;;;4856038;28;20190;-75
2021/04/01 01:25:14;;;;;;;17.60;15.13;;;5.90;99.90;;;;;;4855867;28;20190;-75
2021/04/01 01:27:36;;;;;;;19.50;16.83;;;;;;;;;;4855527;28;20272;-75
2021/04/01 01:29:58;;;;;;;19.03;17.00;;;5.90;99.90;;;;;;4856762;28;20972;-75
2021/04/01 01:32:21;;;;;;;17.50;15.67;;;5.90;99.90;;;;;;4856808;28;20644;-75
2021/04/01 01:34:43;;;;;;;18.20;16.27;;;5.80;99.90;;;;;;4855137;28;20190;-74
2021/04/01 01:37:06;;;;;;;19.50;16.73;;;5.50;99.90;;;;;;4855420;28;20790;-75
2021/04/01 01:39:28;;;;;;;22.73;17.67;;;5.70;99.90;;;;;;4856205;28;20204;-75
2021/04/01 01:41:51;;;;;;;20.27;17.27;;;5.80;99.90;;;;;;4852385;28;20225;-75
2021/04/01 01:44:13;;;;;;;15.17;13.57;;;6.10;99.90;;;;;;4822693;28;20584;-75
2021/04/01 01:46:35;;;;;;;17.00;14.80;;;;;;;;;;4856127;28;20190;-75
2021/04/01 01:48:58;;;;;;;19.57;16.80;;;5.60;99.90;;;;;;4851960;28;20232;-75
2021/04/01 01:51:20;;;;;;;19.33;16.90;;;5.70;99.90;;;;;;4852201;28;20256;-74
2021/04/01 01:53:42;;;;;;;21.70;18.97;;;5.70;99.90;;;;;;4855203;28;20295;-75
2021/04/01 01:56:04;;;;;;;18.40;16.37;;;5.80;99.90;;;;;;4855437;28;20272;-75
2021/04/01 01:58:27;;;;;;;24.47;19.77;;;5.70;99.90;;;;;;4856641;28;20186;-75
2021/04/01 02:00:53;;;;;;;21.57;18.70;;;5.70;99.90;;;;;;4852811;28;20190;-75
2021/04/01 02:03:16;;;;;;;22.03;19.53;;;5.80;99.90;;;;;;4855923;28;20182;-75
2021/04/01 02:05:40;;;;;;;22.17;19.10;;;5.80;99.90;;;;;;4855709;28;21025;-75
2021/04/01 02:08:02;;;;;;;21.77;19.30;;;5.80;99.90;;;;;;4854637;28;20197;-74
2021/04/01 02:10:27;;;;;;;23.00;19.93;;;5.90;99.90;;;;;;4857952;28;20198;-75
2021/04/01 02:12:49;;;;;;;25.63;21.10;;;;;;;;;;4859884;28;20193;-75
2021/04/01 02:15:14;;;;;;;24.07;19.83;;;6.00;99.90;;;;;;4858695;28;20202;-75
2021/04/01 02:17:37;;;;;;;23.20;19.53;;;6.00;99.90;;;;;;4858908;28;20229;-75
2021/04/01 02:20:00;;;;;;;18.93;16.90;;;6.30;99.90;;;;;;4857558;28;20301;-75
2021/04/01 02:22:22;;;;;;;20.87;17.67;;;6.10;99.90;;;;;;4840412;28;20202;-75
2021/04/01 02:24:44;;;;;;;22.47;18.90;;;;;;;;;;4853989;28;20198;-74
2021/04/01 02:27:07;;;;;;;20.67;18.43;;;5.80;99.90;;;;;;4860480;28;20182;-75
2021/04/01 02:29:29;;;;;;;21.03;18.37;;;5.90;99.90;;;;;;4859673;28;20186;-75
2021/04/01 02:31:52;;;;;;;24.17;20.43;;;5.70;99.90;;;;;;4859215;28;20182;-75
2021/04/01 02:34:14;;;;;;;21.90;19.03;;;5.50;99.90;;;;;;4858690;28;20210;-75
2021/04/01 02:36:36;;;;;;;20.57;17.90;;;5.70;99.90;;;;;;4856915;28;20225;-75
2021/04/01 02:38:59;;;;;;;19.33;16.80;;;;;;;;;;4858759;28;20972;-75
2021/04/01 02:41:21;;;;;;;20.43;17.57;;;5.80;99.90;;;;;;4858928;28;20558;-74
2021/04/01 02:43:43;;;;;;;19.80;17.50;;;5.50;99.90;;;;;;4859492;28;20182;-75
2021/04/01 02:46:07;;;;;;;18.70;16.60;;;5.50;99.90;;;;;;4859235;28;20182;-75
2021/04/01 02:48:29;;;;;;;20.93;18.73;;;6.00;99.90;;;;;;4872597;28;20654;-74
2021/04/01 02:50:52;;;;;;;21.13;18.97;;;;;;;;;;4858150;28;20245;-75
2021/04/01 02:53:14;;;;;;;21.57;18.43;;;;;;;;;;4858982;28;20520;-75
2021/04/01 02:55:36;;;;;;;20.17;17.93;;;5.30;99.90;;;;;;4857683;28;20264;-75
2021/04/01 02:57:58;;;;;;;21.27;18.43;;;5.50;99.90;;;;;;4859484;28;20191;-75
2021/04/01 03:00:24;;;;;;;19.97;17.93;;;5.40;99.90;;;;;;4859174;28;20606;-75
2021/04/01 03:02:51;;;;;;;19.43;17.37;;;5.90;99.90;;;;;;4850671;28;20595;-75
2021/04/01 03:05:14;;;;;;;21.67;18.97;;;5.30;99.90;;;;;;4848607;28;20179;-74
2021/04/01 03:07:37;;;;;;;20.80;18.57;;;5.30;99.90;;;;;;4859225;28;20193;-76
2021/04/01 03:09:59;;;;;;;18.80;16.83;;;5.20;99.90;;;;;;4859337;28;20205;-74
2021/04/01 03:12:21;;;;;;;19.03;17.13;;;;;;;;;;4859367;28;20652;-75
2021/04/01 03:14:43;;;;;;;23.73;20.27;;;;;;;;;;4857867;28;20256;-75
2021/04/01 03:17:06;;;;;;;22.13;19.50;;;;;;;;;;4859634;28;20272;-75
2021/04/01 03:19:28;;;;;;;21.73;19.40;;;5.30;99.90;;;;;;4858498;28;20609;-75
2021/04/01 03:21:51;;;;;;;23.53;20.47;;;5.00;99.90;;;;;;4840210;28;20225;-75
2021/04/01 03:24:14;;;;;;;21.60;19.27;;;5.10;99.90;;;;;;4854447;28;20190;-74
2021/04/01 03:26:36;;;;;;;19.20;17.17;;;4.60;99.90;;;;;;4841908;28;20233;-74
2021/04/01 03:28:58;;;;;;;19.87;17.73;;;5.10;99.90;;;;;;4857064;28;20918;-75
2021/04/01 03:31:21;;;;;;;20.43;17.20;;;;;;;;;;4857308;28;20249;-74
2021/04/01 03:33:43;;;;;;;19.37;17.17;;;;;;;;;;4856670;28;20202;-75
2021/04/01 03:36:06;;;;;;;20.10;17.23;;;4.80;99.90;;;;;;4858190;28;20209;-74
2021/04/01 03:38:29;;;;;;;18.97;16.97;;;4.80;99.90;;;;;;4857907;28;20296;-75
2021/04/01 03:40:51;;;;;;;19.67;17.47;;;5.60;99.90;;;;;;4856325;28;20535;-75
2021/04/01 03:43:14;;;;;;;21.30;17.90;;;;;;;;;;4858261;28;20186;-75
2021/04/01 03:45:36;;;;;;;24.17;18.20;;;4.80;99.90;;;;;;4856558;28;20201;-75
2021/04/01 03:47:58;;;;;;;22.20;19.17;;;4.60;99.90;;;;;;4854630;28;20202;-75
2021/04/01 03:50:20;;;;;;;23.43;20.03;;;;;;;;;;4847670;28;20245;-75
2021/04/01 03:52:43;;;;;;;20.57;18.30;;;4.50;99.90;;;;;;4855705;28;20206;-74
2021/04/01 03:55:16;;;;;;;19.90;17.77;;;4.70;99.90;;;;;;4857323;28;20218;-75
2021/04/01 03:57:40;;;;;;;23.33;18.60;;;5.70;99.90;;;;;;4857538;28;20694;-75
2021/04/01 04:00:09;;;;;;;26.10;20.63;;;;;;;;;;4857996;28;20248;-74
2021/04/01 04:02:41;;;;;;;32.07;21.90;;;4.40;99.90;;;;;;4855108;28;20280;-74
2021/04/01 04:05:12;;;;;;;30.10;24.00;;;4.40;99.90;;;;;;4856198;28;20252;-74
2021/04/01 04:13:13;;;;;;;50.83;33.70;;;4.40;99.90;;;;;;4814827;28;20226;-74
2021/04/01 04:15:35;;;;;;;55.40;37.73;;;4.10;99.90;;;;;;4838095;28;20205;-75
2021/04/01 04:17:57;;;;;;;32.03;24.13;;;4.10;99.90;;;;;;4837345;28;20218;-75
2021/04/01 04:20:20;;;;;;;42.27;28.50;;;4.20;99.90;;;;;;4858671;28;20182;-74
2021/04/01 04:22:42;;;;;;;48.20;31.17;;;4.30;99.90;;;;;;4857529;28;20604;-74
2021/04/01 04:25:07;;;;;;;39.63;29.40;;;4.20;99.90;;;;;;4856883;28;20602;-74
2021/04/01 04:27:56;;;;;;;53.87;38.07;;;4.20;99.90;;;;;;4858060;28;20190;-75
2021/04/01 04:30:19;;;;;;;54.77;40.00;;;4.20;99.90;;;;;;4853809;28;20798;-74
2021/04/01 04:32:42;;;;;;;55.33;38.67;;;;;;;;;;4844392;28;21020;-75
2021/04/01 04:35:04;;;;;;;62.43;46.93;;;4.30;99.90;;;;;;4856910;28;20546;-75
2021/04/01 04:37:27;;;;;;;72.20;55.97;;;;;;;;;;4857346;28;20225;-75
2021/04/01 04:39:49;;;;;;;46.90;35.43;;;;;;;;;;4857071;28;20501;-73
2021/04/01 04:42:11;;;;;;;47.37;35.67;;;;;;;;;;4856605;28;20202;-75
2021/04/01 04:44:35;;;;;;;52.13;37.60;;;4.30;99.90;;;;;;4855878;28;20190;-74
2021/04/01 04:46:57;;;;;;;46.60;35.03;;;5.00;99.90;;;;;;4855981;28;20189;-75
2021/04/01 04:49:20;;;;;;;41.23;30.33;;;;;;;;;;4855753;28;20194;-74
2021/04/01 04:51:42;;;;;;;44.63;33.50;;;4.50;99.90;;;;;;4857601;28;20194;-75
2021/04/01 04:54:04;;;;;;;41.13;32.53;;;4.50;99.90;;;;;;4857242;28;20310;-74
2021/04/01 04:56:27;;;;;;;40.00;32.13;;;;;;;;;;4856673;28;20217;-75
2021/04/01 04:58:51;;;;;;;43.10;32.43;;;4.70;99.90;;;;;;4856009;28;20654;-75
2021/04/01 05:04:38;;;;;;;47.80;34.77;;;4.60;99.90;;;;;;4852181;28;20283;-75
2021/04/01 05:06:53;;;;;;;47.33;34.40;;;4.80;99.90;;;;;;4838667;28;20214;-75
2021/04/01 05:09:15;;;;;;;50.37;35.90;;;4.80;99.90;;;;;;4852924;28;20205;-75
2021/04/01 05:11:38;;;;;;;47.30;34.93;;;;;;;;;;4847800;28;20588;-75
2021/04/01 05:14:00;;;;;;;46.07;32.97;;;;;;;;;;4855724;28;20610;-75
2021/04/01 05:16:23;;;;;;;46.80;33.23;;;5.00;99.90;;;;;;4852507;28;20550;-74
2021/04/01 05:18:47;;;;;;;48.83;33.40;;;;;;;;;;4856747;28;20644;-74
2021/04/01 05:21:09;;;;;;;46.40;34.63;;;5.20;99.90;;;;;;4855106;28;20606;-74
2021/04/01 05:23:36;;;;;;;39.20;30.00;;;4.00;99.90;;;;;;4856733;28;20701;-75
2021/04/01 05:28:45;;;;;;;42.50;34.10;;;5.70;99.90;;;;;;4846007;28;20202;-75
2021/04/01 05:31:09;;;;;;;44.70;36.27;;;6.00;99.90;;;;;;4855208;28;20197;-75
2021/04/01 05:33:35;;;;;;;46.40;35.13;;;6.10;99.90;;;;;;4854199;28;20194;-75
2021/04/01 05:35:56;;;;;;;42.53;34.80;;;6.30;99.90;;;;;;4855226;28;20186;-75
2021/04/01 05:38:19;;;;;;;41.13;33.57;;;;;;;;;;4856625;28;20582;-74
2021/04/01 05:40:41;;;;;;;39.27;33.40;;;;;;;;;;4853199;28;20765;-75
2021/04/01 05:43:08;;;;;;;42.63;33.20;;;6.70;99.90;;;;;;4856091;28;20198;-71
2021/04/01 05:45:38;;;;;;;46.10;34.30;;;;;;;;;;4855590;28;20194;-75
2021/04/01 05:48:03;;;;;;;39.30;32.83;;;6.90;99.90;;;;;;4854818;28;20185;-75
2021/04/01 05:50:40;;;;;;;37.20;31.17;;;7.40;99.90;;;;;;4856591;28;20189;-75
2021/04/01 05:59:26;;;;;;;36.57;32.40;;;8.20;99.90;;;;;;4856016;28;20217;-74
2021/04/01 06:02:00;;;;;;;37.40;29.90;;;8.80;99.90;;;;;;4835759;28;20246;-74
2021/04/01 06:04:27;;;;;;;25.87;22.57;;;9.10;99.90;;;;;;4855882;28;20189;-72
2021/04/01 06:06:54;;;;;;;25.53;19.77;;;9.30;99.90;;;;;;4856129;28;20233;-72
2021/04/01 06:09:21;;;;;;;22.23;19.67;;;9.80;99.90;;;;;;4856507;28;20592;-72
2021/04/01 06:11:43;;;;;;;17.90;15.23;;;;;;;;;;4856211;28;20190;-73
2021/04/01 06:14:09;;;;;;;14.10;12.13;;;10.20;99.90;;;;;;4856328;28;20260;-72
2021/04/01 06:16:37;;;;;;;13.20;10.23;;;10.50;99.90;;;;;;4855440;28;20687;-72
2021/04/01 06:19:04;;;;;;;14.00;10.17;;;10.50;99.90;;;;;;4851370;28;20241;-72
2021/04/01 06:21:27;;;;;;;9.73;7.20;;;10.90;99.90;;;;;;4851922;28;20660;-72
2021/04/01 06:24:02;;;;;;;10.63;7.30;;;11.20;99.90;;;;;;4855810;28;20186;-72
2021/04/01 06:26:28;;;;;;;8.47;6.17;;;11.70;99.90;;;;;;4855743;28;20186;-73
2021/04/01 06:28:58;;;;;;;10.13;6.10;;;11.40;98.90;;;;;;4845015;28;20565;-72
2021/04/01 06:31:23;;;;;;;5.80;4.83;;;;;;;;;;4855993;28;20186;-72
2021/04/01 06:33:48;;;;;;;8.60;4.27;;;;;;;;;;4835868;28;20661;-72
2021/04/01 06:36:17;;;;;;;4.13;3.20;;;12.10;81.80;;;;;;4853349;28;20226;-72
2021/04/01 06:38:39;;;;;;;6.80;3.50;;;12.40;86.40;;;;;;4855440;28;20236;-72
2021/04/01 06:41:09;;;;;;;6.10;3.23;;;12.50;48.50;;;;;;4855594;28;20244;-72
2021/04/01 06:43:58;;;;;;;6.03;2.73;;;13.30;47.40;;;;;;4855382;28;20652;-72
2021/04/01 06:46:23;;;;;;;4.10;2.20;;;13.10;24.70;;;;;;4837941;28;20195;-72
2021/04/01 06:49:24;;;;;;;5.60;2.50;;;13.60;1.00;;;;;;4838149;28;20202;-73
2021/04/01 06:51:54;;;;;;;5.47;2.67;;;14.00;1.00;;;;;;4852094;28;20551;-72
2021/04/01 06:54:25;;;;;;;4.87;1.87;;;14.30;1.00;;;;;;4855397;28;20243;-72
2021/04/01 06:56:55;;;;;;;7.67;2.90;;;14.30;1.00;;;;;;4855106;28;20221;-72
2021/04/01 06:59:26;;;;;;;5.00;2.13;;;14.80;40.70;;;;;;4857232;28;20628;-71
2021/04/01 07:01:52;;;;;;;6.17;2.43;;;14.70;99.90;;;;;;4849024;28;20226;-73
2021/04/01 07:04:15;;;;;;;5.83;2.30;;;14.60;1.00;;;;;;4841137;28;20206;-71
2021/04/01 07:06:41;;;;;;;6.33;2.33;;;15.70;1.00;;;;;;4868778;28;20216;-73
2021/04/01 07:09:27;;;;;;;3.47;1.67;;;15.90;99.90;;;;;;4857613;28;20182;-73
2021/04/01 07:11:55;;;;;;;7.10;2.57;;;15.80;1.00;;;;;;4857706;28;20237;-72
2021/04/01 07:14:22;;;;;;;3.83;1.60;;;16.00;99.90;;;;;;4847727;28;20248;-71
2021/04/01 07:16:48;;;;;;;4.80;1.93;;;16.10;99.90;;;;;;4854244;28;20220;-72
2021/04/01 07:19:46;;;;;;;5.93;2.10;;;16.30;1.00;;;;;;4838978;28;20672;-72
2021/04/01 07:35:53;;;;;;;4.10;2.03;;;16.40;99.90;;;;;;4856792;28;20204;-72
2021/04/01 07:46:29;;;;;;;4.73;1.77;;;17.20;29.80;;;;;;4857491;28;20586;-72
2021/04/01 07:48:55;;;;;;;7.70;2.53;;;;;;;;;;4857124;28;20239;-72
2021/04/01 07:51:31;;;;;;;3.53;1.60;;;16.30;1.00;;;;;;4857491;28;20189;-72
2021/04/01 07:53:54;;;;;;;5.37;1.80;;;;;;;;;;4856717;28;20182;-70
2021/04/01 07:56:19;;;;;;;3.33;1.43;;;18.30;99.90;;;;;;4856209;28;20706;-71
2021/04/01 08:01:41;;;;;;;4.27;1.57;;;;;;;;;;4831163;28;20613;-72
2021/04/01 08:04:04;;;;;;;3.70;1.33;;;18.40;1.00;;;;;;4834834;28;20198;-72
2021/04/01 08:06:28;;;;;;;6.20;1.63;;;18.60;1.00;;;;;;4848296;28;20190;-72
2021/04/01 08:08:55;;;;;;;9.00;2.10;;;18.70;1.00;;;;;;4842938;28;20213;-73
2021/04/01 08:11:25;;;;;;;3.97;1.10;;;19.20;1.00;;;;;;4821580;28;20242;-71
2021/04/01 08:13:55;;;;;;;6.53;1.60;;;19.70;1.00;;;;;;4850999;28;20295;-73
2021/04/01 08:16:20;;;;;;;4.60;1.30;;;20.10;1.00;;;;;;4852017;28;20606;-73
2021/04/01 08:18:45;;;;;;;7.27;1.60;;;20.30;1.00;;;;;;4856603;28;20218;-71
2021/04/01 08:21:10;;;;;;;9.27;2.17;;;20.30;99.90;;;;;;4857230;28;20255;-72
2021/04/01 08:23:35;;;;;;;8.90;2.00;;;;;;;;;;4857571;28;20253;-72
2021/04/01 08:26:10;;;;;;;11.57;2.50;;;20.60;1.00;;;;;;4857306;28;20190;-71
2021/04/01 08:28:42;;;;;;;6.33;1.40;;;;;;;;;;4856778;28;20192;-73
2021/04/01 08:31:40;;;;;;;4.37;1.00;;;21.10;1.00;;;;;;4840131;28;20328;-71
2021/04/01 08:34:13;;;;;;;10.63;2.30;;;21.60;1.00;;;;;;4857608;28;20187;-74
2021/04/01 08:36:42;;;;;;;8.73;1.87;;;22.50;99.90;;;;;;4855956;28;20240;-72
2021/04/01 08:39:06;;;;;;;6.80;1.40;;;22.10;1.00;;;;;;4856710;28;20216;-72
2021/04/01 08:41:43;;;;;;;7.97;1.67;;;22.40;1.00;;;;;;4854409;28;20222;-72
2021/04/01 08:44:18;;;;;;;6.33;1.47;;;21.80;99.90;;;;;;4855942;28;20250;-72
2021/04/01 08:46:56;;;;;;;6.93;1.60;;;22.20;1.00;;;;;;4856915;28;20186;-72
2021/04/01 08:49:35;;;;;;;6.23;1.40;;;21.90;99.90;;;;;;4857020;28;20182;-71
2021/04/01 08:52:21;;;;;;;10.77;2.33;;;22.50;1.00;;;;;;4852320;28;20563;-73
2021/04/01 08:54:45;;;;;;;25.20;4.07;;;22.60;1.00;;;;;;4856316;28;20185;-73
2021/04/01 08:57:11;;;;;;;5.00;0.97;;;22.70;1.00;;;;;;4856703;28;20240;-72
2021/04/01 08:59:45;;;;;;;14.07;2.00;;;22.80;1.00;;;;;;4857579;28;20202;-72
2021/04/01 09:02:12;;;;;;;13.70;1.93;;;23.00;1.00;;;;;;4852618;28;20244;-71
2021/04/01 09:04:35;;;;;;;30.30;4.23;;;;;;;;;;4855827;28;20191;-71
2021/04/01 09:07:02;;;;;;;13.80;2.07;;;23.40;1.00;;;;;;4853272;28;20536;-71
2021/04/01 09:09:29;;;;;;;9.90;1.50;;;23.60;1.00;;;;;;4838184;28;20191;-71
2021/04/01 09:11:55;;;;;;;20.43;2.67;;;23.90;1.00;;;;;;4851175;28;20215;-72
2021/04/01 09:14:30;;;;;;;8.03;1.40;;;24.30;1.00;;;;;;4854942;28;20221;-72
2021/04/01 09:17:05;;;;;;;11.57;2.00;;;25.40;1.00;;;;;;4846922;28;20232;-71
2021/04/01 09:19:29;;;;;;;7.20;1.40;;;27.30;1.00;;;;;;4855358;28;20192;-74
2021/04/01 09:21:55;;;;;;;10.30;1.63;;;29.50;1.00;;;;;;4855645;28;20237;-71
2021/04/01 09:24:17;;;;;;;8.97;1.40;;;;;;;;;;4856489;28;20272;-72
2021/04/01 09:26:48;;;;;;;49.87;44.67;;;33.70;1.00;;;;;;4838594;28;20221;-73
2021/04/01 09:29:10;;;;;;;51.73;45.20;;;;;;;;;;4856997;28;20187;-73
2021/04/01 09:31:43;;;;;;;25.90;10.05;;;37.80;1.00;;;;;;4856222;28;20199;-74
2021/04/01 09:34:07;;;;;;;188.05;174.73;;;39.70;1.00;;;;;;4856059;28;20595;-72
2021/04/01 09:36:38;;;;;;;246.95;230.80;;;42.30;1.00;;;;;;4855637;28;20225;-74
2021/04/01 09:39:13;;;;;;;251.88;235.40;;;;;;;;;;4854507;28;20590;-75
2021/04/01 09:41:36;;;;;;;454.10;369.00;;;43.60;1.00;;;;;;4855854;28;20605;-73
2021/04/01 09:44:04;;;;;;;362.80;331.48;;;44.30;99.90;;;;;;4854069;28;20189;-73
2021/04/01 09:46:27;;;;;;;388.70;355.60;;;;;;;;;;4854918;28;20193;-73
2021/04/01 09:48:59;;;;;;;31.80;14.05;;;46.00;99.90;;;;;;4856477;28;20358;-73
2021/04/01 09:51:22;;;;;;;23.25;10.63;;;46.60;99.90;;;;;;4855741;28;20202;-73
2021/04/01 09:53:52;;;;;;;88.53;81.65;;;46.80;99.90;;;;;;4854952;28;20202;-74
2021/04/01 09:56:23;;;;;;;20.17;16.00;;;47.20;99.90;;;;;;4855908;28;20566;-74
2021/04/01 09:58:48;;;;;;;12.13;3.80;;;47.50;99.90;;;;;;4855012;28;20305;-74
2021/04/01 10:01:26;;;;;;;175.48;165.15;;;48.00;99.90;;;;;;4853963;28;20570;-74
2021/04/01 10:03:54;;;;;;;185.82;173.20;;;47.90;99.90;;;;;;4855736;28;20235;-72
2021/04/01 10:06:37;;;;;;;16.55;2.45;;;48.00;1.00;;;;;;4854149;28;20188;-76
2021/04/01 10:09:08;;;;;;;14.73;2.13;;;48.30;1.00;;;;;;4848642;28;20251;-73
2021/04/01 10:11:31;;;;;;;15.35;2.30;;;48.40;99.90;;;;;;4856427;28;20662;-74
2021/04/01 10:14:04;;;;;;;35.58;4.88;;;48.20;99.90;;;;;;4856022;28;20274;-74
2021/04/01 10:16:27;;;;;;;16.25;2.33;;;;;;;;;;4853772;28;20205;-74
2021/04/01 10:18:50;;;;;;;30.42;4.00;;;46.60;99.90;;;;;;4855783;28;20193;-75
2021/04/01 10:21:13;;;;;;;6.47;1.13;;;;;;;;;;4856260;28;20198;-73
2021/04/01 10:23:43;;;;;;;14.65;2.13;;;45.20;99.90;;;;;;4855898;28;20198;-75
2021/04/01 10:26:08;;;;;;;8.05;1.35;;;45.40;99.90;;;;;;4855181;28;20194;-75
2021/04/01 10:28:47;;;;;;;13.98;2.08;;;45.90;99.90;;;;;;4856632;28;20666;-72
2021/04/01 10:31:15;;;;;;;11.32;1.70;;;45.30;1.00;;;;;;4854516;28;20189;-72
2021/04/01 10:33:50;;;;;;;15.98;2.28;;;45.10;99.90;;;;;;4857353;28;20197;-73
2021/04/01 10:36:14;;;;;;;13.50;2.05;;;45.50;99.90;;;;;;4858915;28;20217;-73
2021/04/01 10:38:37;;;;;;;15.60;2.28;;;46.20;99.90;;;;;;4859966;28;20225;-74
2021/04/01 10:41:09;;;;;;;23.88;3.28;;;47.30;99.90;;;;;;4857866;28;20708;-75
2021/04/01 10:43:33;;;;;;;18.15;2.60;;;47.70;1.00;;;;;;4858816;28;20194;-75
2021/04/01 10:45:59;;;;;;;25.65;3.58;;;47.60;99.90;;;;;;4874025;28;20603;-75
2021/04/01 10:48:30;;;;;;;13.07;2.00;;;48.00;1.00;;;;;;4859844;28;20667;-73
2021/04/01 10:50:57;;;;;;;25.38;3.58;;;48.30;99.90;;;;;;4859765;28;20196;-73
2021/04/01 10:53:21;;;;;;;11.48;1.83;;;48.30;99.90;;;;;;4859531;28;20193;-73
2021/04/01 10:55:43;;;;;;;10.27;1.75;;;;;;;;;;4859279;28;20202;-75
2021/04/01 10:58:10;;;;;;;21.38;2.95;;;46.80;1.00;;;;;;4859191;28;20196;-76
2021/04/01 11:00:33;;;;;;;88.97;11.52;;;46.30;99.90;;;;;;4857558;28;20186;-74
2021/04/01 11:02:59;;;;;;;29.73;4.10;;;45.30;1.00;;;;;;4834657;28;20201;-73
2021/04/01 11:05:24;;;;;;;10.77;1.70;;;44.10;99.90;;;;;;4856626;28;20667;-73
2021/04/01 11:07:49;;;;;;;7.85;1.27;;;42.50;99.90;;;;;;4856485;28;20209;-75
2021/04/01 11:10:18;;;;;;;11.43;1.98;;;40.10;1.00;;;;;;4859367;28;20186;-76
2021/04/01 11:12:45;;;;;;;23.13;3.20;;;39.30;1.00;;;;;;4856395;28;20194;-73
2021/04/01 11:15:09;;;;;;;11.65;5.97;;;36.90;96.70;;;;;;4858025;28;20177;-75
2021/04/01 11:17:35;;;;;;;71.63;66.40;;;36.10;99.90;;;;;;4855026;28;20323;-75
2021/04/01 11:19:59;;;;;;;26.65;12.95;;;35.10;99.90;;;;;;4848785;28;20208;-74
2021/04/01 11:22:22;;;;;;;39.35;36.58;;;;;;;;;;4859508;28;20190;-73
2021/04/01 11:24:44;;;;;;;44.90;9.75;;;;;;;;;;4857496;28;20225;-74
2021/04/01 11:27:08;;;;;;;21.00;4.20;;;33.20;99.90;;;;;;4855101;28;20206;-73
2021/04/01 11:29:31;;;;;;;17.80;3.15;;;;;;;;;;4848279;28;20239;-74
2021/04/01 11:31:54;;;;;;;17.63;2.80;;;32.70;99.90;;;;;;4837059;28;20202;-73
2021/04/01 11:34:17;;;;;;;8.85;1.48;;;34.00;99.90;;;;;;4839965;28;20251;-73
2021/04/01 11:36:41;;;;;;;20.70;3.17;;;;;;;;;;4848219;28;20221;-73
2021/04/01 11:39:13;;;;;;;11.38;1.95;;;35.90;99.90;;;;;;4858228;28;20251;-72
2021/04/01 11:41:46;;;;;;;19.27;3.80;;;35.60;99.90;;;;;;4854841;28;20206;-75
2021/04/01 11:44:11;;;;;;;18.48;5.05;;;37.90;99.90;;;;;;4857826;28;20178;-74
2021/04/01 11:46:33;;;;;;;17.15;4.13;;;39.10;74.80;;;;;;4858230;28;20273;-73
2021/04/01 11:48:58;;;;;;;19.88;2.78;;;39.40;99.90;;;;;;4857588;28;20212;-73
2021/04/01 11:51:25;;;;;;;9.88;1.48;;;38.70;99.90;;;;;;4862654;28;20264;-72
2021/04/01 11:53:47;;;;;;;15.07;2.10;;;37.20;55.70;;;;;;4857559;28;20198;-76
2021/04/01 11:56:10;;;;;;;13.13;1.88;;;;;;;;;;4856635;28;20224;-72
2021/04/01 11:58:32;;;;;;;20.67;17.65;;;;;;;;;;4858505;28;20185;-74
2021/04/01 12:01:05;;;;;;;20.60;2.85;;;34.30;1.00;;;;;;4856233;28;20190;-74
2021/04/01 12:03:33;;;;;;;16.52;2.35;;;35.20;99.90;;;;;;4854399;28;20201;-74
2021/04/01 12:05:56;;;;;;;17.27;2.25;;;;;;;;;;4849357;28;20268;-74
2021/04/01 12:08:20;;;;;;;21.20;2.88;;;35.30;1.00;;;;;;4853656;28;20210;-72
2021/04/01 12:10:54;;;;;;;20.55;2.70;;;35.10;1.00;;;;;;4853687;28;20274;-74
2021/04/01 12:13:20;;;;;;;14.50;2.00;;;34.70;1.00;;;;;;4857365;28;20256;-75
2021/04/01 12:15:42;;;;;;;17.63;2.40;;;34.20;1.00;;;;;;4857467;28;20189;-71
2021/04/01 12:18:06;;;;;;;10.45;1.55;;;33.20;99.90;;;;;;4857911;28;20198;-73
2021/04/01 12:20:28;;;;;;;10.27;1.60;;;32.30;1.00;;;;;;4853809;28;20194;-73
2021/04/01 12:22:52;;;;;;;24.70;3.22;;;;;;;;;;4853332;28;21111;-72
2021/04/01 12:25:18;;;;;;;11.63;1.65;;;30.90;1.00;;;;;;4857205;28;20188;-73
2021/04/01 12:27:48;;;;;;;17.85;2.45;;;30.70;99.90;;;;;;4857959;28;20189;-73
2021/04/01 12:30:22;;;;;;;10.68;1.50;;;30.10;99.90;;;;;;4856402;28;20197;-74
2021/04/01 12:32:47;;;;;;;19.13;2.60;;;30.20;1.00;;;;;;4853020;28;20583;-74
2021/04/01 12:35:13;;;;;;;14.65;2.05;;;30.20;99.90;;;;;;4855233;28;20197;-72
2021/04/01 12:37:35;;;;;;;12.37;1.83;;;;;;;;;;4857496;28;20236;-74
2021/04/01 12:39:57;;;;;;;16.80;2.40;;;;;;;;;;4855159;28;20189;-74
2021/04/01 12:42:21;;;;;;;10.13;1.50;;;28.00;99.90;;;;;;4853761;28;20201;-74
2021/04/01 12:44:43;;;;;;;30.73;4.23;;;27.60;99.90;;;;;;4820134;28;20206;-73
2021/04/01 12:47:07;;;;;;;8.10;1.30;;;27.20;99.90;;;;;;4856113;28;20755;-71
2021/04/01 12:49:32;;;;;;;42.67;38.47;;;26.90;99.90;;;;;;4856274;28;20223;-75
2021/04/01 12:51:58;;;;;;;28.70;3.73;;;;;;;;;;4855307;28;20621;-71
2021/04/01 12:54:26;;;;;;;12.17;1.73;;;26.40;99.90;;;;;;4855229;28;20196;-73
2021/04/01 12:56:54;;;;;;;20.57;2.73;;;26.30;99.90;;;;;;4852774;28;20202;-73
2021/04/01 12:59:19;;;;;;;18.60;2.57;;;26.30;99.90;;;;;;4838501;28;20690;-73
2021/04/01 13:01:44;;;;;;;12.50;1.77;;;;;;;;;;4846764;28;20194;-73
2021/04/01 13:04:09;;;;;;;12.83;1.87;;;;;;;;;;4855536;28;20578;-73
2021/04/01 13:06:47;;;;;;;12.47;1.73;;;;;;;;;;4852241;28;20236;-72
2021/04/01 13:12:11;;;;;;;21.93;2.90;;;28.40;99.90;;;;;;4799608;28;20203;-72
2021/04/01 13:14:34;;;;;;;37.37;4.83;;;28.60;99.90;;;;;;4841451;28;20315;-72
2021/04/01 13:16:56;;;;;;;23.33;3.10;;;;;;;;;;4853450;28;20190;-72
2021/04/01 13:19:18;;;;;;;16.77;2.27;;;;;;;;;;4855456;28;20253;-73
2021/04/01 13:21:52;;;;;;;12.83;1.80;;;28.00;99.90;;;;;;4856817;28;20195;-72
2021/04/01 13:24:22;;;;;;;9.60;1.43;;;27.60;99.90;;;;;;4852748;28;20210;-71
2021/04/01 13:26:45;;;;;;;9.47;1.37;;;;;;;;;;4853322;28;20243;-71
2021/04/01 13:29:09;;;;;;;14.47;2.03;;;27.00;99.90;;;;;;4856528;28;21099;-74
2021/04/01 13:34:17;;;;;;;9.93;1.47;;;26.60;99.90;;;;;;4856411;28;20235;-71
2021/04/01 13:36:41;;;;;;;13.90;1.97;;;26.50;99.90;;;;;;4855074;28;20220;-74
2021/04/01 13:39:06;;;;;;;13.97;1.97;;;;;;;;;;4855832;28;20275;-72
2021/04/01 13:41:41;;;;;;;12.80;1.83;;;26.10;99.90;;;;;;4851682;28;20194;-71